Mozarlandia, Brazil
Current Conditions -  °F | °C
As of 10:00 PM on Monday 24 Nov 2014 (Local Time) from SBAN Reporting Station
Few Clouds Few Clouds  
Wind Chill: 70°   Ceiling: Unl
Heat Index: 70°   Visibility: 6mi
Dew Point: 64°   Wind: 6mph
Humidity: 83%   Direction: 50°NE
Pressure: 30.09"   Gusts: NA
Location:  14.79°S, 50.57°W
Report Text: SBAN 250000Z 05005KT 9999 FEW030 21/18 Q1019
Loading
Personal Weather Stations






























Interactive Weather Map New forecast layout! Learn more

10-Day Weather Forecast

Advertisements
Track Severe Weather on mobile